sensor_id;sensor_type;location;lat;lon;timestamp;temperature;humidity
35377;DHT22;21480;51.642;4.834;2022-08-19T00:00:44;15.70;99.90
35377;DHT22;21480;51.642;4.834;2022-08-19T00:03:10;15.70;99.90
35377;DHT22;21480;51.642;4.834;2022-08-19T00:05:36;15.60;99.90
35377;DHT22;21480;51.642;4.834;2022-08-19T00:08:02;15.60;99.90
35377;DHT22;21480;51.642;4.834;2022-08-19T00:10:28;15.60;99.90
35377;DHT22;21480;51.642;4.834;2022-08-19T00:12:53;15.60;99.90
35377;DHT22;21480;51.642;4.834;2022-08-19T00:15:20;15.60;99.90
35377;DHT22;21480;51.642;4.834;2022-08-19T00:17:47;15.60;99.90
35377;DHT22;21480;51.642;4.834;2022-08-19T00:20:16;15.50;99.90
35377;DHT22;21480;51.642;4.834;2022-08-19T00:22:44;15.40;99.90
35377;DHT22;21480;51.642;4.834;2022-08-19T00:25:09;15.40;99.90
35377;DHT22;21480;51.642;4.834;2022-08-19T00:27:35;15.40;99.90
35377;DHT22;21480;51.642;4.834;2022-08-19T00:30:01;15.40;99.90
35377;DHT22;21480;51.642;4.834;2022-08-19T00:32:29;15.30;99.90
35377;DHT22;21480;51.642;4.834;2022-08-19T00:34:54;15.40;99.90
35377;DHT22;21480;51.642;4.834;2022-08-19T00:37:24;15.40;99.90
35377;DHT22;21480;51.642;4.834;2022-08-19T00:39:51;15.40;99.90
35377;DHT22;21480;51.642;4.834;2022-08-19T00:42:18;15.30;99.90
35377;DHT22;21480;51.642;4.834;2022-08-19T00:44:44;15.30;99.90
35377;DHT22;21480;51.642;4.834;2022-08-19T00:47:10;15.30;99.90
35377;DHT22;21480;51.642;4.834;2022-08-19T00:49:57;15.30;99.90
35377;DHT22;21480;51.642;4.834;2022-08-19T00:52:27;15.30;99.90
35377;DHT22;21480;51.642;4.834;2022-08-19T00:54:57;15.30;99.90
35377;DHT22;21480;51.642;4.834;2022-08-19T00:57:29;15.20;99.90
35377;DHT22;21480;51.642;4.834;2022-08-19T00:59:59;15.30;99.90
35377;DHT22;21480;51.642;4.834;2022-08-19T01:02:26;15.20;99.90
35377;DHT22;21480;51.642;4.834;2022-08-19T01:04:53;15.10;99.90
35377;DHT22;21480;51.642;4.834;2022-08-19T01:07:19;15.10;99.90
35377;DHT22;21480;51.642;4.834;2022-08-19T01:09:45;15.10;99.90
35377;DHT22;21480;51.642;4.834;2022-08-19T01:12:11;15.00;99.90
35377;DHT22;21480;51.642;4.834;2022-08-19T01:14:38;15.00;99.90
35377;DHT22;21480;51.642;4.834;2022-08-19T01:17:05;15.00;99.90
35377;DHT22;21480;51.642;4.834;2022-08-19T01:19:37;15.00;99.90
35377;DHT22;21480;51.642;4.834;2022-08-19T01:22:25;15.00;99.90
35377;DHT22;21480;51.642;4.834;2022-08-19T01:24:52;15.00;99.90
35377;DHT22;21480;51.642;4.834;2022-08-19T01:27:18;15.00;99.90
35377;DHT22;21480;51.642;4.834;2022-08-19T01:29:44;15.00;99.90
35377;DHT22;21480;51.642;4.834;2022-08-19T01:32:12;15.00;99.90
35377;DHT22;21480;51.642;4.834;2022-08-19T01:34:39;14.90;99.90
35377;DHT22;21480;51.642;4.834;2022-08-19T01:37:09;15.00;99.90
35377;DHT22;21480;51.642;4.834;2022-08-19T01:39:38;15.10;99.90
35377;DHT22;21480;51.642;4.834;2022-08-19T01:42:05;15.20;99.90
35377;DHT22;21480;51.642;4.834;2022-08-19T01:44:32;15.40;99.90
35377;DHT22;21480;51.642;4.834;2022-08-19T01:46:58;15.50;99.90
35377;DHT22;21480;51.642;4.834;2022-08-19T01:49:25;15.40;99.90
35377;DHT22;21480;51.642;4.834;2022-08-19T01:51:53;15.30;99.90
35377;DHT22;21480;51.642;4.834;2022-08-19T01:54:20;15.30;99.90
35377;DHT22;21480;51.642;4.834;2022-08-19T01:56:46;15.20;99.90
35377;DHT22;21480;51.642;4.834;2022-08-19T01:59:17;15.10;99.90
35377;DHT22;21480;51.642;4.834;2022-08-19T02:01:44;15.10;99.90
35377;DHT22;21480;51.642;4.834;2022-08-19T02:04:10;15.10;99.90
35377;DHT22;21480;51.642;4.834;2022-08-19T02:06:39;15.10;99.90
35377;DHT22;21480;51.642;4.834;2022-08-19T02:09:06;15.10;99.90
35377;DHT22;21480;51.642;4.834;2022-08-19T02:11:35;15.00;99.90
35377;DHT22;21480;51.642;4.834;2022-08-19T02:14:04;15.00;99.90
35377;DHT22;21480;51.642;4.834;2022-08-19T02:16:31;15.00;99.90
35377;DHT22;21480;51.642;4.834;2022-08-19T02:18:58;14.90;99.90
35377;DHT22;21480;51.642;4.834;2022-08-19T02:21:26;14.90;99.90
35377;DHT22;21480;51.642;4.834;2022-08-19T02:23:52;14.90;99.90
35377;DHT22;21480;51.642;4.834;2022-08-19T02:26:18;14.90;99.90
35377;DHT22;21480;51.642;4.834;2022-08-19T02:28:44;14.90;99.90
35377;DHT22;21480;51.642;4.834;2022-08-19T02:31:12;14.90;99.90
35377;DHT22;21480;51.642;4.834;2022-08-19T02:33:39;14.90;99.90
35377;DHT22;21480;51.642;4.834;2022-08-19T02:36:06;14.80;99.90
35377;DHT22;21480;51.642;4.834;2022-08-19T02:38:32;14.80;99.90
35377;DHT22;21480;51.642;4.834;2022-08-19T02:41:07;14.80;99.90
35377;DHT22;21480;51.642;4.834;2022-08-19T02:43:33;14.70;99.90
35377;DHT22;21480;51.642;4.834;2022-08-19T02:46:24;14.80;99.90
35377;DHT22;21480;51.642;4.834;2022-08-19T02:48:54;14.80;99.90
35377;DHT22;21480;51.642;4.834;2022-08-19T02:51:22;14.80;99.90
35377;DHT22;21480;51.642;4.834;2022-08-19T02:53:49;14.80;99.90
35377;DHT22;21480;51.642;4.834;2022-08-19T02:56:15;14.70;99.90
35377;DHT22;21480;51.642;4.834;2022-08-19T02:58:41;14.70;99.90
35377;DHT22;21480;51.642;4.834;2022-08-19T03:01:09;14.70;99.90
35377;DHT22;21480;51.642;4.834;2022-08-19T03:03:35;14.70;99.90
35377;DHT22;21480;51.642;4.834;2022-08-19T03:06:11;14.70;99.90
35377;DHT22;21480;51.642;4.834;2022-08-19T03:08:40;14.80;99.90
35377;DHT22;21480;51.642;4.834;2022-08-19T03:11:11;14.80;99.90
35377;DHT22;21480;51.642;4.834;2022-08-19T03:13:37;14.80;99.90
35377;DHT22;21480;51.642;4.834;2022-08-19T03:16:04;14.70;99.90
35377;DHT22;21480;51.642;4.834;2022-08-19T03:18:30;14.70;99.90
35377;DHT22;21480;51.642;4.834;2022-08-19T03:20:56;14.60;99.90
35377;DHT22;21480;51.642;4.834;2022-08-19T03:23:22;14.60;99.90
35377;DHT22;21480;51.642;4.834;2022-08-19T03:25:50;14.60;99.90
35377;DHT22;21480;51.642;4.834;2022-08-19T03:28:16;14.60;99.90
35377;DHT22;21480;51.642;4.834;2022-08-19T03:30:54;14.60;99.90
35377;DHT22;21480;51.642;4.834;2022-08-19T03:33:22;14.60;99.90
35377;DHT22;21480;51.642;4.834;2022-08-19T03:35:58;14.50;99.90
35377;DHT22;21480;51.642;4.834;2022-08-19T03:38:24;14.50;99.90
35377;DHT22;21480;51.642;4.834;2022-08-19T03:40:50;14.50;99.90
35377;DHT22;21480;51.642;4.834;2022-08-19T03:43:15;14.50;99.90
35377;DHT22;21480;51.642;4.834;2022-08-19T03:45:43;14.50;99.90
35377;DHT22;21480;51.642;4.834;2022-08-19T03:48:09;14.50;99.90
35377;DHT22;21480;51.642;4.834;2022-08-19T03:50:39;14.50;99.90
35377;DHT22;21480;51.642;4.834;2022-08-19T03:53:04;14.60;99.90
35377;DHT22;21480;51.642;4.834;2022-08-19T03:55:31;14.60;99.90
35377;DHT22;21480;51.642;4.834;2022-08-19T03:57:57;14.60;99.90
35377;DHT22;21480;51.642;4.834;2022-08-19T04:00:23;14.60;99.90
35377;DHT22;21480;51.642;4.834;2022-08-19T04:02:49;14.60;99.90
35377;DHT22;21480;51.642;4.834;2022-08-19T04:05:14;14.60;99.90
35377;DHT22;21480;51.642;4.834;2022-08-19T04:07:40;14.90;99.90
35377;DHT22;21480;51.642;4.834;2022-08-19T04:10:06;15.00;99.90
35377;DHT22;21480;51.642;4.834;2022-08-19T04:12:32;15.10;99.90
35377;DHT22;21480;51.642;4.834;2022-08-19T04:14:57;15.10;99.90
35377;DHT22;21480;51.642;4.834;2022-08-19T04:17:24;15.00;99.90
35377;DHT22;21480;51.642;4.834;2022-08-19T04:19:49;15.00;99.90
35377;DHT22;21480;51.642;4.834;2022-08-19T04:22:15;14.90;99.90
35377;DHT22;21480;51.642;4.834;2022-08-19T04:24:41;14.90;99.90
35377;DHT22;21480;51.642;4.834;2022-08-19T04:27:06;14.80;99.90
35377;DHT22;21480;51.642;4.834;2022-08-19T04:29:33;14.90;99.90
35377;DHT22;21480;51.642;4.834;2022-08-19T04:31:59;14.90;99.90
35377;DHT22;21480;51.642;4.834;2022-08-19T04:34:27;14.90;99.90
35377;DHT22;21480;51.642;4.834;2022-08-19T04:36:55;15.00;99.90
35377;DHT22;21480;51.642;4.834;2022-08-19T04:39:24;15.10;99.90
35377;DHT22;21480;51.642;4.834;2022-08-19T04:42:11;15.10;99.90
35377;DHT22;21480;51.642;4.834;2022-08-19T04:44:55;15.20;99.90
35377;DHT22;21480;51.642;4.834;2022-08-19T04:47:21;15.20;99.90
35377;DHT22;21480;51.642;4.834;2022-08-19T04:49:47;15.20;99.90
35377;DHT22;21480;51.642;4.834;2022-08-19T04:52:14;15.20;99.90
35377;DHT22;21480;51.642;4.834;2022-08-19T04:54:40;15.30;99.90
35377;DHT22;21480;51.642;4.834;2022-08-19T04:57:09;15.30;99.90
35377;DHT22;21480;51.642;4.834;2022-08-19T04:59:36;15.40;99.90
35377;DHT22;21480;51.642;4.834;2022-08-19T05:02:03;15.50;99.90
35377;DHT22;21480;51.642;4.834;2022-08-19T05:04:28;15.50;99.90
35377;DHT22;21480;51.642;4.834;2022-08-19T05:06:56;15.60;99.90
35377;DHT22;21480;51.642;4.834;2022-08-19T05:09:22;15.50;99.90
35377;DHT22;21480;51.642;4.834;2022-08-19T05:11:47;15.60;99.90
35377;DHT22;21480;51.642;4.834;2022-08-19T05:14:15;15.60;99.90
35377;DHT22;21480;51.642;4.834;2022-08-19T05:16:40;15.60;99.90
35377;DHT22;21480;51.642;4.834;2022-08-19T05:19:06;15.70;99.90
35377;DHT22;21480;51.642;4.834;2022-08-19T05:21:51;15.80;99.90
35377;DHT22;21480;51.642;4.834;2022-08-19T05:24:35;15.90;99.90
35377;DHT22;21480;51.642;4.834;2022-08-19T05:27:01;16.00;99.90
35377;DHT22;21480;51.642;4.834;2022-08-19T05:29:29;16.10;99.90
35377;DHT22;21480;51.642;4.834;2022-08-19T05:31:58;16.10;99.90
35377;DHT22;21480;51.642;4.834;2022-08-19T05:34:25;16.20;99.90
35377;DHT22;21480;51.642;4.834;2022-08-19T05:36:55;16.30;99.90
35377;DHT22;21480;51.642;4.834;2022-08-19T05:39:27;16.30;99.90
35377;DHT22;21480;51.642;4.834;2022-08-19T05:41:59;16.40;99.90
35377;DHT22;21480;51.642;4.834;2022-08-19T05:44:28;16.50;99.90
35377;DHT22;21480;51.642;4.834;2022-08-19T05:47:03;16.60;99.90
35377;DHT22;21480;51.642;4.834;2022-08-19T05:49:30;16.60;99.90
35377;DHT22;21480;51.642;4.834;2022-08-19T05:51:57;16.70;99.90
35377;DHT22;21480;51.642;4.834;2022-08-19T05:54:25;16.80;99.90
35377;DHT22;21480;51.642;4.834;2022-08-19T05:56:51;16.90;99.90
35377;DHT22;21480;51.642;4.834;2022-08-19T05:59:19;17.00;99.90
35377;DHT22;21480;51.642;4.834;2022-08-19T06:01:48;17.00;99.90
35377;DHT22;21480;51.642;4.834;2022-08-19T06:04:16;17.10;99.90
35377;DHT22;21480;51.642;4.834;2022-08-19T06:06:44;17.20;99.90
35377;DHT22;21480;51.642;4.834;2022-08-19T06:09:10;17.20;99.90
35377;DHT22;21480;51.642;4.834;2022-08-19T06:11:47;17.30;99.90
35377;DHT22;21480;51.642;4.834;2022-08-19T06:14:16;17.40;99.90
35377;DHT22;21480;51.642;4.834;2022-08-19T06:16:43;17.50;99.90
35377;DHT22;21480;51.642;4.834;2022-08-19T06:19:12;17.50;99.90
35377;DHT22;21480;51.642;4.834;2022-08-19T06:21:40;17.60;99.90
35377;DHT22;21480;51.642;4.834;2022-08-19T06:24:08;17.60;99.90
35377;DHT22;21480;51.642;4.834;2022-08-19T06:26:38;17.70;99.90
35377;DHT22;21480;51.642;4.834;2022-08-19T06:29:05;17.70;99.90
35377;DHT22;21480;51.642;4.834;2022-08-19T06:31:33;17.80;99.90
35377;DHT22;21480;51.642;4.834;2022-08-19T06:34:00;17.90;99.90
35377;DHT22;21480;51.642;4.834;2022-08-19T06:36:32;18.00;99.90
35377;DHT22;21480;51.642;4.834;2022-08-19T06:39:02;18.00;99.90
35377;DHT22;21480;51.642;4.834;2022-08-19T06:41:29;18.10;99.90
35377;DHT22;21480;51.642;4.834;2022-08-19T06:43:56;18.20;99.90
35377;DHT22;21480;51.642;4.834;2022-08-19T06:46:22;18.20;99.90
35377;DHT22;21480;51.642;4.834;2022-08-19T06:48:48;18.30;99.90
35377;DHT22;21480;51.642;4.834;2022-08-19T06:51:16;18.20;99.90
35377;DHT22;21480;51.642;4.834;2022-08-19T06:53:45;18.40;99.90
35377;DHT22;21480;51.642;4.834;2022-08-19T06:56:17;18.40;99.90
35377;DHT22;21480;51.642;4.834;2022-08-19T06:58:44;18.60;99.90
35377;DHT22;21480;51.642;4.834;2022-08-19T07:01:10;18.70;99.90
35377;DHT22;21480;51.642;4.834;2022-08-19T07:03:37;18.70;99.90
35377;DHT22;21480;51.642;4.834;2022-08-19T07:06:06;18.70;99.90
35377;DHT22;21480;51.642;4.834;2022-08-19T07:08:33;18.80;99.90
35377;DHT22;21480;51.642;4.834;2022-08-19T07:10:59;18.80;99.90
35377;DHT22;21480;51.642;4.834;2022-08-19T07:13:25;18.90;99.90
35377;DHT22;21480;51.642;4.834;2022-08-19T07:15:52;18.90;99.90
35377;DHT22;21480;51.642;4.834;2022-08-19T07:18:19;19.00;99.90
35377;DHT22;21480;51.642;4.834;2022-08-19T07:20:46;18.90;99.90
35377;DHT22;21480;51.642;4.834;2022-08-19T07:23:12;19.00;99.90
35377;DHT22;21480;51.642;4.834;2022-08-19T07:25:39;18.90;99.90
35377;DHT22;21480;51.642;4.834;2022-08-19T07:28:05;19.00;99.90
35377;DHT22;21480;51.642;4.834;2022-08-19T07:30:37;18.90;99.90
35377;DHT22;21480;51.642;4.834;2022-08-19T07:33:03;19.10;99.90
35377;DHT22;21480;51.642;4.834;2022-08-19T07:35:29;19.10;99.90
35377;DHT22;21480;51.642;4.834;2022-08-19T07:37:57;19.10;99.90
35377;DHT22;21480;51.642;4.834;2022-08-19T07:40:23;19.00;99.90
35377;DHT22;21480;51.642;4.834;2022-08-19T07:42:49;19.10;99.90
35377;DHT22;21480;51.642;4.834;2022-08-19T07:45:15;19.20;99.90
35377;DHT22;21480;51.642;4.834;2022-08-19T07:47:41;19.30;99.90
35377;DHT22;21480;51.642;4.834;2022-08-19T07:50:09;19.40;99.90
35377;DHT22;21480;51.642;4.834;2022-08-19T07:52:37;19.50;99.90
35377;DHT22;21480;51.642;4.834;2022-08-19T07:55:06;19.50;99.90
35377;DHT22;21480;51.642;4.834;2022-08-19T07:57:32;19.50;99.90
35377;DHT22;21480;51.642;4.834;2022-08-19T07:59:59;19.60;99.90
35377;DHT22;21480;51.642;4.834;2022-08-19T08:02:24;19.80;99.90
35377;DHT22;21480;51.642;4.834;2022-08-19T08:04:50;20.00;99.90
35377;DHT22;21480;51.642;4.834;2022-08-19T08:07:34;20.10;99.90
35377;DHT22;21480;51.642;4.834;2022-08-19T08:10:19;20.10;99.90
35377;DHT22;21480;51.642;4.834;2022-08-19T08:12:44;20.40;99.90
35377;DHT22;21480;51.642;4.834;2022-08-19T08:15:14;20.40;99.90
35377;DHT22;21480;51.642;4.834;2022-08-19T08:17:44;20.50;99.90
35377;DHT22;21480;51.642;4.834;2022-08-19T08:20:12;20.50;99.90
35377;DHT22;21480;51.642;4.834;2022-08-19T08:22:43;20.60;99.90
35377;DHT22;21480;51.642;4.834;2022-08-19T08:25:28;20.60;99.90
35377;DHT22;21480;51.642;4.834;2022-08-19T08:27:54;20.50;99.90
35377;DHT22;21480;51.642;4.834;2022-08-19T08:30:24;20.70;99.90
35377;DHT22;21480;51.642;4.834;2022-08-19T08:32:50;20.60;99.90
35377;DHT22;21480;51.642;4.834;2022-08-19T08:35:20;20.80;99.90
35377;DHT22;21480;51.642;4.834;2022-08-19T08:37:48;20.90;99.90
35377;DHT22;21480;51.642;4.834;2022-08-19T08:40:22;21.10;99.90
35377;DHT22;21480;51.642;4.834;2022-08-19T08:45:24;21.60;99.90
35377;DHT22;21480;51.642;4.834;2022-08-19T08:47:51;21.80;99.90
35377;DHT22;21480;51.642;4.834;2022-08-19T08:50:29;21.60;99.90
35377;DHT22;21480;51.642;4.834;2022-08-19T08:53:01;21.70;99.90
35377;DHT22;21480;51.642;4.834;2022-08-19T08:55:29;21.80;99.90
35377;DHT22;21480;51.642;4.834;2022-08-19T08:58:18;22.10;99.90
35377;DHT22;21480;51.642;4.834;2022-08-19T09:00:48;21.90;99.90
35377;DHT22;21480;51.642;4.834;2022-08-19T09:03:22;21.80;99.90
35377;DHT22;21480;51.642;4.834;2022-08-19T09:06:04;21.70;99.90
35377;DHT22;21480;51.642;4.834;2022-08-19T09:11:36;21.80;99.90
35377;DHT22;21480;51.642;4.834;2022-08-19T09:16:40;22.10;99.90
35377;DHT22;21480;51.642;4.834;2022-08-19T09:19:07;22.10;99.90
35377;DHT22;21480;51.642;4.834;2022-08-19T09:21:34;22.20;99.90
35377;DHT22;21480;51.642;4.834;2022-08-19T09:24:05;22.30;99.90
35377;DHT22;21480;51.642;4.834;2022-08-19T09:26:32;22.50;99.90
35377;DHT22;21480;51.642;4.834;2022-08-19T09:28:58;22.50;99.90
35377;DHT22;21480;51.642;4.834;2022-08-19T09:31:28;22.60;99.90
35377;DHT22;21480;51.642;4.834;2022-08-19T09:33:54;22.50;99.90
35377;DHT22;21480;51.642;4.834;2022-08-19T09:36:24;22.50;99.90
35377;DHT22;21480;51.642;4.834;2022-08-19T09:38:51;22.40;99.90
35377;DHT22;21480;51.642;4.834;2022-08-19T09:41:20;22.50;99.90
35377;DHT22;21480;51.642;4.834;2022-08-19T09:43:48;22.70;99.90
35377;DHT22;21480;51.642;4.834;2022-08-19T09:46:14;22.70;99.90
35377;DHT22;21480;51.642;4.834;2022-08-19T09:48:42;22.90;99.90
35377;DHT22;21480;51.642;4.834;2022-08-19T09:51:15;23.00;99.90
35377;DHT22;21480;51.642;4.834;2022-08-19T09:53:45;23.30;99.90
35377;DHT22;21480;51.642;4.834;2022-08-19T09:56:12;23.40;99.90
35377;DHT22;21480;51.642;4.834;2022-08-19T09:58:38;23.60;99.90
35377;DHT22;21480;51.642;4.834;2022-08-19T10:01:05;23.80;99.90
35377;DHT22;21480;51.642;4.834;2022-08-19T10:03:32;24.00;99.90
35377;DHT22;21480;51.642;4.834;2022-08-19T10:06:01;24.00;99.90
35377;DHT22;21480;51.642;4.834;2022-08-19T10:08:32;24.20;99.90
35377;DHT22;21480;51.642;4.834;2022-08-19T10:10:58;24.40;99.90
35377;DHT22;21480;51.642;4.834;2022-08-19T10:13:27;24.60;99.90
35377;DHT22;21480;51.642;4.834;2022-08-19T10:15:55;24.30;99.90
35377;DHT22;21480;51.642;4.834;2022-08-19T10:18:24;24.60;99.90
35377;DHT22;21480;51.642;4.834;2022-08-19T10:20:51;25.00;99.90
35377;DHT22;21480;51.642;4.834;2022-08-19T10:23:20;24.90;99.90
35377;DHT22;21480;51.642;4.834;2022-08-19T10:25:46;24.90;99.90
35377;DHT22;21480;51.642;4.834;2022-08-19T10:28:13;24.80;99.90
35377;DHT22;21480;51.642;4.834;2022-08-19T10:30:39;25.20;99.90
35377;DHT22;21480;51.642;4.834;2022-08-19T10:33:06;25.20;99.90
35377;DHT22;21480;51.642;4.834;2022-08-19T10:35:32;25.10;99.90
35377;DHT22;21480;51.642;4.834;2022-08-19T10:37:57;25.20;99.90
35377;DHT22;21480;51.642;4.834;2022-08-19T10:40:28;24.80;99.90
35377;DHT22;21480;51.642;4.834;2022-08-19T10:42:54;24.60;99.90
35377;DHT22;21480;51.642;4.834;2022-08-19T10:45:24;24.80;99.90
35377;DHT22;21480;51.642;4.834;2022-08-19T10:47:53;24.60;99.90
35377;DHT22;21480;51.642;4.834;2022-08-19T10:50:18;24.80;99.90
35377;DHT22;21480;51.642;4.834;2022-08-19T10:53:07;24.80;99.90
35377;DHT22;21480;51.642;4.834;2022-08-19T10:55:36;24.40;99.90
35377;DHT22;21480;51.642;4.834;2022-08-19T10:58:22;24.30;99.90
35377;DHT22;21480;51.642;4.834;2022-08-19T11:00:55;24.20;99.90
35377;DHT22;21480;51.642;4.834;2022-08-19T11:03:22;24.20;99.90
35377;DHT22;21480;51.642;4.834;2022-08-19T11:06:06;24.50;99.90
35377;DHT22;21480;51.642;4.834;2022-08-19T11:08:33;24.70;99.90
35377;DHT22;21480;51.642;4.834;2022-08-19T11:11:01;24.70;99.90
35377;DHT22;21480;51.642;4.834;2022-08-19T11:13:33;24.80;99.90
35377;DHT22;21480;51.642;4.834;2022-08-19T11:16:14;24.70;99.90
35377;DHT22;21480;51.642;4.834;2022-08-19T11:18:49;24.70;99.90
35377;DHT22;21480;51.642;4.834;2022-08-19T11:21:30;24.30;99.90
35377;DHT22;21480;51.642;4.834;2022-08-19T11:23:59;23.80;99.90
35377;DHT22;21480;51.642;4.834;2022-08-19T11:26:26;23.40;99.90
35377;DHT22;21480;51.642;4.834;2022-08-19T11:28:53;23.30;99.90
35377;DHT22;21480;51.642;4.834;2022-08-19T11:31:22;22.90;99.90
35377;DHT22;21480;51.642;4.834;2022-08-19T11:33:48;22.60;99.90
35377;DHT22;21480;51.642;4.834;2022-08-19T11:36:18;22.20;99.90
35377;DHT22;21480;51.642;4.834;2022-08-19T11:38:46;21.90;99.90
35377;DHT22;21480;51.642;4.834;2022-08-19T11:41:14;21.60;99.90
35377;DHT22;21480;51.642;4.834;2022-08-19T11:43:40;21.30;99.90
35377;DHT22;21480;51.642;4.834;2022-08-19T11:46:08;21.00;99.90
35377;DHT22;21480;51.642;4.834;2022-08-19T11:48:36;20.80;99.90
35377;DHT22;21480;51.642;4.834;2022-08-19T11:51:11;20.60;99.90
35377;DHT22;21480;51.642;4.834;2022-08-19T11:53:38;20.60;99.90
35377;DHT22;21480;51.642;4.834;2022-08-19T11:56:07;20.50;99.90
35377;DHT22;21480;51.642;4.834;2022-08-19T11:58:34;20.50;99.90
35377;DHT22;21480;51.642;4.834;2022-08-19T12:01:00;20.50;99.90
35377;DHT22;21480;51.642;4.834;2022-08-19T12:03:26;20.60;99.90
35377;DHT22;21480;51.642;4.834;2022-08-19T12:05:53;20.80;99.90
35377;DHT22;21480;51.642;4.834;2022-08-19T12:08:20;21.10;99.90
35377;DHT22;21480;51.642;4.834;2022-08-19T12:10:45;21.40;99.90
35377;DHT22;21480;51.642;4.834;2022-08-19T12:13:12;21.40;99.90
35377;DHT22;21480;51.642;4.834;2022-08-19T12:15:45;21.60;99.90
35377;DHT22;21480;51.642;4.834;2022-08-19T12:18:11;21.70;99.90
35377;DHT22;21480;51.642;4.834;2022-08-19T12:20:40;22.00;99.90
35377;DHT22;21480;51.642;4.834;2022-08-19T12:23:08;22.00;99.90
35377;DHT22;21480;51.642;4.834;2022-08-19T12:25:35;22.00;99.90
35377;DHT22;21480;51.642;4.834;2022-08-19T12:28:01;22.10;99.90
35377;DHT22;21480;51.642;4.834;2022-08-19T12:30:28;22.10;99.90
35377;DHT22;21480;51.642;4.834;2022-08-19T12:32:54;22.20;99.90
35377;DHT22;21480;51.642;4.834;2022-08-19T12:35:20;22.20;99.90
35377;DHT22;21480;51.642;4.834;2022-08-19T12:37:47;22.20;99.90
35377;DHT22;21480;51.642;4.834;2022-08-19T12:40:15;22.30;99.90
35377;DHT22;21480;51.642;4.834;2022-08-19T12:42:41;22.20;99.90
35377;DHT22;21480;51.642;4.834;2022-08-19T12:45:11;22.40;99.90
35377;DHT22;21480;51.642;4.834;2022-08-19T12:47:38;22.50;99.90
35377;DHT22;21480;51.642;4.834;2022-08-19T12:50:05;22.10;99.90
35377;DHT22;21480;51.642;4.834;2022-08-19T12:52:36;22.20;99.90
35377;DHT22;21480;51.642;4.834;2022-08-19T12:55:07;22.30;99.90
35377;DHT22;21480;51.642;4.834;2022-08-19T12:57:32;22.30;99.90
35377;DHT22;21480;51.642;4.834;2022-08-19T13:00:10;22.00;99.90
35377;DHT22;21480;51.642;4.834;2022-08-19T13:02:43;21.90;99.90
35377;DHT22;21480;51.642;4.834;2022-08-19T13:05:15;21.90;99.90
35377;DHT22;21480;51.642;4.834;2022-08-19T13:07:42;21.90;99.90
35377;DHT22;21480;51.642;4.834;2022-08-19T13:10:13;22.00;99.90
35377;DHT22;21480;51.642;4.834;2022-08-19T13:12:41;22.00;99.90
35377;DHT22;21480;51.642;4.834;2022-08-19T13:15:07;21.80;99.90
35377;DHT22;21480;51.642;4.834;2022-08-19T13:17:34;21.70;99.90
35377;DHT22;21480;51.642;4.834;2022-08-19T13:19:59;21.90;99.90
35377;DHT22;21480;51.642;4.834;2022-08-19T13:22:25;21.90;99.90
35377;DHT22;21480;51.642;4.834;2022-08-19T13:24:51;21.90;99.90
35377;DHT22;21480;51.642;4.834;2022-08-19T13:27:17;21.70;99.90
35377;DHT22;21480;51.642;4.834;2022-08-19T13:29:42;21.90;99.90
35377;DHT22;21480;51.642;4.834;2022-08-19T13:32:26;22.10;99.90
35377;DHT22;21480;51.642;4.834;2022-08-19T13:35:12;22.30;99.90
35377;DHT22;21480;51.642;4.834;2022-08-19T13:37:37;22.20;99.90
35377;DHT22;21480;51.642;4.834;2022-08-19T13:40:13;22.40;99.90
35377;DHT22;21480;51.642;4.834;2022-08-19T13:42:42;22.70;99.90
35377;DHT22;21480;51.642;4.834;2022-08-19T13:45:08;23.10;99.90
35377;DHT22;21480;51.642;4.834;2022-08-19T13:47:34;23.60;99.90
35377;DHT22;21480;51.642;4.834;2022-08-19T13:50:02;24.10;99.90
35377;DHT22;21480;51.642;4.834;2022-08-19T13:52:28;25.20;99.90
35377;DHT22;21480;51.642;4.834;2022-08-19T13:54:54;25.80;99.90
35377;DHT22;21480;51.642;4.834;2022-08-19T13:57:20;25.90;99.90
35377;DHT22;21480;51.642;4.834;2022-08-19T13:59:46;25.60;99.90
35377;DHT22;21480;51.642;4.834;2022-08-19T14:02:12;25.30;99.90
35377;DHT22;21480;51.642;4.834;2022-08-19T14:04:37;24.90;99.90
35377;DHT22;21480;51.642;4.834;2022-08-19T14:07:03;24.40;99.90
35377;DHT22;21480;51.642;4.834;2022-08-19T14:09:30;24.20;99.90
35377;DHT22;21480;51.642;4.834;2022-08-19T14:11:55;23.80;99.90
35377;DHT22;21480;51.642;4.834;2022-08-19T14:14:21;23.20;99.90
35377;DHT22;21480;51.642;4.834;2022-08-19T14:16:48;22.80;99.90
35377;DHT22;21480;51.642;4.834;2022-08-19T14:19:13;22.20;99.90
35377;DHT22;21480;51.642;4.834;2022-08-19T14:21:39;21.90;99.90
35377;DHT22;21480;51.642;4.834;2022-08-19T14:24:07;21.50;99.90
35377;DHT22;21480;51.642;4.834;2022-08-19T14:26:32;21.10;99.90
35377;DHT22;21480;51.642;4.834;2022-08-19T14:28:58;20.90;99.90
35377;DHT22;21480;51.642;4.834;2022-08-19T14:31:24;20.50;99.90
35377;DHT22;21480;51.642;4.834;2022-08-19T14:33:51;20.40;99.90
35377;DHT22;21480;51.642;4.834;2022-08-19T14:36:18;20.30;99.90
35377;DHT22;21480;51.642;4.834;2022-08-19T14:38:45;20.30;99.90
35377;DHT22;21480;51.642;4.834;2022-08-19T14:41:22;20.80;99.90
35377;DHT22;21480;51.642;4.834;2022-08-19T14:43:51;22.50;99.90
35377;DHT22;21480;51.642;4.834;2022-08-19T14:46:19;22.50;99.90
35377;DHT22;21480;51.642;4.834;2022-08-19T14:48:46;22.90;99.90
35377;DHT22;21480;51.642;4.834;2022-08-19T14:51:12;23.10;99.90
35377;DHT22;21480;51.642;4.834;2022-08-19T14:53:38;23.30;99.90
35377;DHT22;21480;51.642;4.834;2022-08-19T14:56:09;23.20;99.90
35377;DHT22;21480;51.642;4.834;2022-08-19T14:58:35;23.00;99.90
35377;DHT22;21480;51.642;4.834;2022-08-19T15:01:01;22.80;99.90
35377;DHT22;21480;51.642;4.834;2022-08-19T15:03:28;23.40;99.90
35377;DHT22;21480;51.642;4.834;2022-08-19T15:05:54;23.80;99.90
35377;DHT22;21480;51.642;4.834;2022-08-19T15:08:22;24.20;99.90
35377;DHT22;21480;51.642;4.834;2022-08-19T15:10:51;23.80;99.90
35377;DHT22;21480;51.642;4.834;2022-08-19T15:13:17;23.60;99.90
35377;DHT22;21480;51.642;4.834;2022-08-19T15:15:42;23.50;99.90
35377;DHT22;21480;51.642;4.834;2022-08-19T15:18:08;23.30;99.90
35377;DHT22;21480;51.642;4.834;2022-08-19T15:20:35;23.00;99.90
35377;DHT22;21480;51.642;4.834;2022-08-19T15:23:01;22.90;99.90
35377;DHT22;21480;51.642;4.834;2022-08-19T15:25:27;22.70;99.90
35377;DHT22;21480;51.642;4.834;2022-08-19T15:27:53;22.50;99.90
35377;DHT22;21480;51.642;4.834;2022-08-19T15:30:22;22.30;99.90
35377;DHT22;21480;51.642;4.834;2022-08-19T15:32:51;22.20;99.90
35377;DHT22;21480;51.642;4.834;2022-08-19T15:35:21;22.20;99.90
35377;DHT22;21480;51.642;4.834;2022-08-19T15:37:54;22.00;99.90
35377;DHT22;21480;51.642;4.834;2022-08-19T15:40:22;22.00;99.90
35377;DHT22;21480;51.642;4.834;2022-08-19T15:42:48;21.80;99.90
35377;DHT22;21480;51.642;4.834;2022-08-19T15:45:15;21.70;99.90